Bowdens, North Carolina
Current Conditions -  °F | °C
As of 9:35 PM on Sunday 21 Dec 2014 (Local Time) from KDPL Reporting Station
Overcast Overcast  
Wind Chill: 42°   Ceiling: 3400
Heat Index: 45°   Visibility: 10mi
Dew Point: 36°   Wind: 5mph
Humidity: 71%   Direction: 30°NNE
Pressure: 30.23"   Gusts: NA
Location:  34.9964°N, 78.0772°W
Report Text: KDPL 220235Z AUTO 03004KT 10SM BKN034 OVC042 07/02 A3023 RMK AO2 T00700020
Loading
Personal Weather Stations






























Interactive Weather Map New forecast layout! Learn more

10-Day Weather Forecast

Advertisements
Track Severe Weather on mobile